AirNav   TITAN Aviation Fuels
 
 332 users online  

KPJC Zelienople Municipal Airport
Zelienople, Pennsylvania, USA

GOING TO ZELIENOPLE?


FAA INFORMATION EFFECTIVE 22 APRIL 2021

Location

FAA Identifier: PJC
Lat/Long: 40-48-07.1000N 080-09-39.1000W
40-48.118333N 080-09.651667W
40.8019722,-80.1608611
(estimated)
Elevation: 897.8 ft. / 273.6 m (surveyed)
Variation: 09W (2000)
From city: 1 mile W of ZELIENOPLE, PA
Time zone: UTC -4 (UTC -5 during Standard Time)
Zip code: 16123

Airport Operations

Airport use: Open to the public
Activation date: 03/1958
Control tower: no
ARTCC: CLEVELAND CENTER
FSS: ALTOONA FLIGHT SERVICE STATION
NOTAMs facility: AOO (NOTAM-D service available)
Attendance: MON-FRI 0600-2200, ALL SAT-SUN ON CALL
FOR ATTENDANT SAT-SUN CALL 724-452-4719.
Wind indicator: lighted
Segmented circle: no
Lights: ACTVT REIL RWY 17 & 35; MIRL RWY 17/35 AFT 2200 - CTAF. PAPI CONS & MIRL OPER DUSK-2200.
Beacon: white-green (lighted land airport)
Operates sunset to sunrise.

Airport Communications

CTAF: 122.9
WX AWOS-3PT: 118.45 (724-452-5304)
PITTSBURGH APPROACH: 124.75
PITTSBURGH DEPARTURE: 124.75
WX AWOS-3PT at BTP (10 nm E): 121.450 (724-586-6434)
WX AWOS-3PT at BVI (11 nm W): 118.35 (724-843-1024)
WX AWOS-3PT at UCP (18 nm NW): 124.175 ((724) 652-4184)
WX ASOS at PIT (19 nm S): PHONE 412-472-0145

Nearby radio navigation aids

VOR radial/distance  VOR name  Freq  Var
EWCr129/2.7ELLWOOD CITY VOR/DME115.8008W
AGCr359/31.9ALLEGHENY VOR/DME110.0009W
HLGr037/37.5WHEELING VOR/DME112.2007W
YNGr149/39.3YOUNGSTOWN VORTAC109.0005W

 
NDB name  Hdg/Dist  Freq  Var  ID
CASTLE148/17.627209WUCP ..- -.-. .--.

Airport Services

Fuel available: 100LL JET-A JET-A+
Parking: hangars and tiedowns
Airframe service: MAJOR
Powerplant service: MAJOR
Bottled oxygen: HIGH
Bulk oxygen: LOW

Runway Information

Runway 17/35

Dimensions: 4933 x 75 ft. / 1504 x 23 m
Surface: asphalt, in good condition
Runway edge lights: medium intensity
RUNWAY 17  RUNWAY 35
Latitude: 40-48.511208N40-47.725148N
Longitude: 080-09.786162W080-09.516012W
Elevation: 889.9 ft.896.2 ft.
Traffic pattern: leftleft
Runway heading: 174 magnetic, 165 true354 magnetic, 345 true
Displaced threshold: 551 ft.282 ft.
Declared distances: TORA:4932 TODA:4932 ASDA:4932 LDA:4381TORA:4932 TODA:4932 ASDA:4932 LDA:4650
Markings: nonprecision, in good conditionnonprecision, in good condition
Visual slope indicator: 2-light PAPI on left (3.48 degrees glide path)
PAPI UNUSBL BYD 5 DEG L OF CNTRLN.
Runway end identifier lights: yesyes
Touchdown point: yes, no lightsyes, no lights
Obstructions: 82 ft. trees, 226 ft. from runway, 215 ft. left of centerline
RWY 17 82 FT TREES 226 FT FROM THLD 215 FT L. 9:1 TO DTHR.
56 ft. pole, lighted, 480 ft. from runway, 267 ft. left of centerline, 5:1 slope to clear
NON-STD LGTG; UTILITY POLE LIT FROM THE BOTTOM.

Airport Ownership and Management from official FAA records

Ownership: Publicly-owned
Owner: ARPT AUTH BORO ZELIENOPLE
100 TASA DRIVE
ZELIENOPLE, PA 16063
Phone 724-452-1290
Manager: DAVE HOLMAN
220 TASA DRIVE
ZELIENOPLE, PA 16063
Phone 724-452-4719

Airport Operational Statistics

Aircraft based on the field: 50
Single engine airplanes: 35
Multi engine airplanes: 3
Jet airplanes: 6
Helicopters: 6
    
Aircraft operations: avg 115/day *
79% local general aviation
15% transient general aviation
5% air taxi
<1% military
* for 12-month period ending 13 October 2020

Additional Remarks

DEER & GEESE ON & INVOF RWY.
PARALLEL TXY MKD WITH REFLECTORS.
FOR CD CTC PITTSBURGH APCH AT 412-472-5591.
RWY 35 68 FT LGT POLE 720 FT FM THLD, 291 FT RT. 56 FT LGT POLE 480 FT FM THLD, 267 FT LT. POLES LGT FM THE BOTTOM.

Instrument Procedures

NOTE: All procedures below are presented as PDF files. If you need a reader for these files, you should download the free Adobe Reader.

NOT FOR NAVIGATION. Please procure official charts for flight.
FAA instrument procedures published for use from 22 April 2021 at 0901Z to 20 May 2021 at 0900z.

 
IAPs - Instrument Approach Procedures
RNAV (GPS) RWY 17   download (193KB)
RNAV (GPS) RWY 35   download (208KB)
NOTE: Special Take-Off Minimums/Departure Procedures apply   download (149KB)

Other nearby airports with instrument procedures:

KBTP - Pittsburgh/Butler Regional Airport (10 nm E)
KBVI - Beaver County Airport (11 nm W)
KUCP - New Castle Municipal Airport (18 nm NW)
KPIT - Pittsburgh International Airport (19 nm S)
29D - Grove City Airport (21 nm N)
 
Loc | Ops | Rwys | IFR | FBO | Links
Com | Nav | Svcs | Stats | Notes
Area around KPJC (Zelienople Municipal Airport)
 
Road maps at: MapQuest Bing Google
 
Aerial photo
WARNING: Photo may not be current or correct
Aerial photo of KPJC (Zelienople Municipal Airport)
Photo taken 22-Jun-2015
looking north.

Do you have a better or more recent aerial photo of Zelienople Municipal Airport that you would like to share? If so, please send us your photo.

 
Sectional chart

 
Airport distance calculator
Flying to Zelienople Municipal Airport? Find the distance to fly.

From to KPJC

Sunrise and sunset
Times for 13-May-2021
 Local
(UTC-4)
 Zulu
(UTC)
Morning civil twilight05:3509:35
Sunrise06:0610:06
Sunset20:2800:28
Evening civil twilight20:5900:59

Current date and time
Zulu (UTC)  13-May-2021 08:45:28
Local (UTC-4)  13-May-2021 04:45:28
 
METAR
KPJC 130835Z AUTO 00000KT 7SM CLR 00/00 A3033 RMK AO2
KBTP 
10nm E 
130756Z AUTO 00000KT 10SM CLR 03/M01 A3032 RMK AO2 SLP278 T00281006
KBVI 
11nm W 
130835Z AUTO 33003KT 10SM CLR 05/00 A3032 RMK AO2 T00470000
KUCP 
18nm NW 
130656Z AUTO 00000KT 10SM CLR 02/M01 A3033 RMK AO2 SLP292 T00221006
KPIT 
19nm S 
130751Z 29004KT 10SM CLR 06/M02 A3031 RMK SLP273 T00611017
TAF
KBVI 
11nm W 
130523Z 1306/1406 32004KT P6SM SKC FM131700 34010G20KT P6SM BKN070 FM140000 35005KT P6SM SKC
KPIT 
19nm S 
130523Z 1306/1412 34008KT P6SM SKC FM131700 34010G20KT P6SM BKN070 FM140000 35005KT P6SM SKC
NOTAMs
Click for the latest NOTAMs
NOTAMs are issued by the DoD/FAA and will open in a separate window not controlled by AirNav.

 

 
 

FBO, Fuel Providers, and Aircraft Ground Support

  
 Business Name 
 
 Contact 
 
 Services / Description 
 
Fuel Prices
 
Comments
  
Pittsburgh Jet Center 724-452-4719
no information available

If you are affiliated with Pittsburgh Jet Center and would like to show here your services, contact info, web link, logo, and more, click here
100LL Jet A
FS --- $4.10 
SS $5.40 --- 
 Updated 10-May-2021
 
   write
FS=Full service
SS=Self service
Update Fuel Prices
 

Would you like to see your business listed on this page?

 If your business provides an interesting product or service to pilots, flight crews, aircraft, or users of the Zelienople Municipal Airport, you should consider listing it here.  To start the listing process, click on the button below
 
Add a business
 

Other Pages about Zelienople Municipal Airport

boro.zelienople.pa.us/airport.htm
 
Update a link
 
Copyright © AirNav, LLC. All rights reserved. Privacy Policy  Contact